Time;durP1;ratioP1;P1;durP2;ratioP2;P2;SDS_P1;SDS_P2;PMS_P1;PMS_P2;Temp;Humidity;BMP_temperature;BMP_pressure;BME280_temperature;BME280_humidity;BME280_pressure;Samples;Min_cycle;Max_cycle;Signal;HPM_P1;HPM_P2
2022/04/28 00:01:28;;;;;;;14.13;7.30;;;8.60;99.90;;;;;;5069152;28;20473;-46
2022/04/28 00:03:54;;;;;;;10.45;6.38;;;8.50;99.90;;;;;;5069123;28;20028;-46
2022/04/28 00:06:20;;;;;;;14.38;7.22;;;8.50;99.90;;;;;;5069303;28;20036;-49
2022/04/28 00:08:45;;;;;;;10.18;7.20;;;8.50;99.90;;;;;;5069207;28;20040;-46
2022/04/28 00:11:11;;;;;;;9.13;7.05;;;8.50;99.90;;;;;;5069150;28;20035;-47
2022/04/28 00:13:37;;;;;;;16.92;8.07;;;8.40;99.90;;;;;;5068376;28;20020;-46
2022/04/28 00:16:03;;;;;;;14.30;6.80;;;8.40;99.90;;;;;;5067584;28;20024;-46
2022/04/28 00:18:29;;;;;;;11.95;6.97;;;8.40;99.90;;;;;;5058507;28;20021;-47
2022/04/28 00:20:54;;;;;;;11.35;6.97;;;8.40;99.90;;;;;;5061870;28;20092;-48
2022/04/28 00:23:20;;;;;;;10.38;7.22;;;8.30;99.90;;;;;;5067037;28;20111;-47
2022/04/28 00:25:45;;;;;;;17.15;6.90;;;8.30;99.90;;;;;;5068963;28;20085;-49
2022/04/28 00:28:11;;;;;;;18.75;7.70;;;8.30;99.90;;;;;;5068822;28;20466;-46
2022/04/28 00:30:36;;;;;;;13.20;7.07;;;8.30;99.90;;;;;;5068753;28;20028;-47
2022/04/28 00:33:02;;;;;;;12.30;6.97;;;8.20;99.90;;;;;;5067961;28;20029;-47
2022/04/28 00:35:27;;;;;;;15.05;7.90;;;8.20;99.90;;;;;;5069109;28;20445;-47
2022/04/28 00:37:53;;;;;;;9.40;7.47;;;8.10;99.90;;;;;;5068759;28;20029;-46
2022/04/28 00:40:19;;;;;;;14.18;6.80;;;8.10;99.90;;;;;;5067426;28;20064;-47
2022/04/28 00:42:44;;;;;;;13.65;6.95;;;8.20;99.90;;;;;;5067291;28;20027;-46
2022/04/28 00:45:10;;;;;;;12.63;7.38;;;8.10;99.90;;;;;;5068678;28;20570;-46
2022/04/28 00:50:38;;;;;;;14.88;7.25;;;8.10;99.90;;;;;;5068550;28;20035;-46
2022/04/28 00:53:11;;;;;;;16.63;7.22;;;8.10;99.90;;;;;;5068234;28;20031;-47
2022/04/28 00:55:37;;;;;;;13.60;7.57;;;8.00;99.90;;;;;;5068491;28;20024;-46
2022/04/28 00:58:02;;;;;;;17.75;8.20;;;8.00;99.90;;;;;;5068585;28;20093;-47
2022/04/28 01:00:28;;;;;;;14.10;7.43;;;8.00;99.90;;;;;;5068447;28;20028;-47
2022/04/28 01:02:54;;;;;;;12.07;7.55;;;7.90;99.90;;;;;;5067892;28;20032;-47
2022/04/28 01:05:20;;;;;;;24.48;8.13;;;8.00;99.90;;;;;;5068433;28;20078;-47
2022/04/28 01:07:45;;;;;;;10.70;7.53;;;7.90;99.90;;;;;;5071755;28;20115;-47
2022/04/28 01:10:11;;;;;;;16.50;8.32;;;7.80;99.90;;;;;;5073004;28;20431;-49
2022/04/28 01:12:36;;;;;;;16.33;6.90;;;7.80;99.90;;;;;;5068497;28;20031;-48
2022/04/28 01:15:03;;;;;;;17.92;7.60;;;7.70;99.90;;;;;;5068252;28;20163;-49
2022/04/28 01:17:29;;;;;;;20.17;8.68;;;7.70;99.90;;;;;;5068562;28;20070;-46
2022/04/28 01:19:54;;;;;;;14.80;7.88;;;7.60;99.90;;;;;;5068567;28;20444;-47
2022/04/28 01:22:20;;;;;;;13.88;8.10;;;7.60;99.90;;;;;;5067925;28;20577;-46
2022/04/28 01:24:45;;;;;;;12.55;7.55;;;7.60;99.90;;;;;;5068382;28;20052;-48
2022/04/28 01:27:12;;;;;;;14.13;7.40;;;7.60;99.90;;;;;;5068414;28;20027;-48
2022/04/28 01:29:38;;;;;;;13.38;7.90;;;7.60;99.90;;;;;;5068348;28;20078;-46
2022/04/28 01:32:03;;;;;;;16.95;7.65;;;7.50;99.90;;;;;;5067461;28;20389;-48
2022/04/28 01:34:29;;;;;;;12.80;8.38;;;7.40;99.90;;;;;;5068217;28;20021;-46
2022/04/28 01:36:55;;;;;;;13.35;8.23;;;7.40;99.90;;;;;;5081125;28;20043;-48
2022/04/28 01:39:21;;;;;;;12.38;7.15;;;7.30;99.90;;;;;;5088579;28;20103;-46
2022/04/28 01:41:49;;;;;;;16.45;7.93;;;7.30;99.90;;;;;;5087903;28;20032;-46
2022/04/28 01:44:15;;;;;;;11.98;7.05;;;7.20;99.90;;;;;;5088253;28;20085;-47
2022/04/28 01:46:41;;;;;;;16.10;7.85;;;7.20;99.90;;;;;;5088320;28;20028;-47
2022/04/28 01:49:06;;;;;;;12.48;7.43;;;7.10;99.90;;;;;;5088572;28;20089;-47
2022/04/28 01:57:00;;;;;;;12.45;7.65;;;7.00;99.90;;;;;;5092227;28;20035;-47
2022/04/28 01:59:26;;;;;;;16.20;7.82;;;6.90;99.90;;;;;;5091613;28;20021;-46
2022/04/28 02:01:52;;;;;;;15.77;8.13;;;6.90;99.90;;;;;;5091112;28;20242;-47
2022/04/28 02:04:19;;;;;;;14.88;7.72;;;6.80;99.90;;;;;;5084147;28;20451;-46
2022/04/28 02:06:44;;;;;;;12.13;7.20;;;6.80;99.90;;;;;;5061270;28;20509;-47
2022/04/28 02:09:10;;;;;;;15.82;8.15;;;6.80;99.90;;;;;;5059777;28;20028;-47
2022/04/28 02:11:36;;;;;;;14.95;8.75;;;6.70;99.90;;;;;;5055114;28;20608;-48
2022/04/28 02:14:01;;;;;;;19.92;8.52;;;6.70;99.90;;;;;;5064071;28;20033;-47
2022/04/28 02:16:27;;;;;;;19.73;8.40;;;6.60;99.90;;;;;;5058399;28;20073;-47
2022/04/28 02:18:52;;;;;;;19.50;8.55;;;6.60;99.90;;;;;;5060734;28;20112;-47
2022/04/28 02:21:18;;;;;;;13.00;7.07;;;6.60;99.90;;;;;;5059908;28;20033;-48
2022/04/28 02:23:43;;;;;;;16.10;8.40;;;6.50;99.90;;;;;;5063150;28;20040;-46
2022/04/28 02:26:09;;;;;;;14.43;8.18;;;6.50;99.90;;;;;;5060149;28;20658;-47
2022/04/28 02:28:34;;;;;;;19.40;8.63;;;6.50;99.90;;;;;;5061470;28;20035;-47
2022/04/28 02:31:00;;;;;;;15.80;8.93;;;6.40;99.90;;;;;;5062728;28;20202;-47
2022/04/28 02:33:25;;;;;;;14.40;8.02;;;6.50;99.90;;;;;;5059640;28;20497;-46
2022/04/28 02:35:51;;;;;;;15.75;9.00;;;6.40;99.90;;;;;;5061227;28;20021;-48
2022/04/28 02:38:16;;;;;;;14.23;7.45;;;6.40;99.90;;;;;;5059267;28;20009;-47
2022/04/28 02:40:42;;;;;;;19.25;9.00;;;6.40;99.90;;;;;;5060853;28;20470;-46
2022/04/28 02:43:07;;;;;;;21.17;9.27;;;6.40;99.90;;;;;;5059927;28;20032;-47
2022/04/28 02:45:33;;;;;;;20.73;9.82;;;6.30;99.90;;;;;;5059504;28;20490;-45
2022/04/28 02:47:59;;;;;;;16.77;9.65;;;6.30;99.90;;;;;;5061299;28;20078;-46
2022/04/28 02:50:24;;;;;;;16.48;8.52;;;6.20;99.90;;;;;;5058567;28;20497;-49
2022/04/28 02:52:50;;;;;;;16.00;9.18;;;6.20;99.90;;;;;;5057445;28;20054;-46
2022/04/28 02:55:16;;;;;;;16.33;8.52;;;6.20;99.90;;;;;;5058959;28;20044;-46
2022/04/28 02:57:42;;;;;;;18.52;9.05;;;6.10;99.90;;;;;;5059793;28;20020;-47
2022/04/28 03:00:08;;;;;;;21.48;9.85;;;6.10;99.90;;;;;;5061134;28;20530;-46
2022/04/28 03:02:35;;;;;;;16.45;10.43;;;6.00;99.90;;;;;;5058561;28;20391;-46
2022/04/28 03:05:03;;;;;;;21.30;9.50;;;6.00;99.90;;;;;;5054857;28;20020;-48
2022/04/28 03:12:58;;;;;;;14.93;9.07;;;6.00;99.90;;;;;;5068205;28;20034;-46
2022/04/28 03:15:25;;;;;;;15.82;9.98;;;5.90;99.90;;;;;;5068622;28;20020;-48
2022/04/28 03:17:50;;;;;;;15.68;9.10;;;5.90;99.90;;;;;;5060177;28;20140;-46
2022/04/28 03:20:16;;;;;;;17.75;9.07;;;5.80;99.90;;;;;;5057978;28;20111;-46
2022/04/28 03:22:43;;;;;;;19.17;10.30;;;5.80;99.90;;;;;;5058584;28;20036;-46
2022/04/28 03:25:09;;;;;;;16.30;9.98;;;5.80;99.90;;;;;;5057369;28;20052;-46
2022/04/28 03:27:35;;;;;;;22.40;9.65;;;5.80;99.90;;;;;;5059349;28;20092;-46
2022/04/28 03:30:01;;;;;;;26.75;10.20;;;5.80;99.90;;;;;;5060131;28;20107;-46
2022/04/28 03:32:26;;;;;;;19.17;11.00;;;5.80;99.90;;;;;;5061168;28;20025;-46
2022/04/28 03:34:52;;;;;;;26.33;10.65;;;5.80;99.90;;;;;;5058031;28;20263;-46
2022/04/28 03:37:17;;;;;;;15.88;9.43;;;5.70;99.90;;;;;;5060151;28;20032;-45
2022/04/28 03:39:43;;;;;;;16.17;9.27;;;5.60;99.90;;;;;;5052342;28;20066;-46
2022/04/28 03:42:08;;;;;;;20.92;10.00;;;5.60;99.90;;;;;;5049172;28;20041;-46
2022/04/28 03:44:34;;;;;;;19.55;10.20;;;5.60;99.90;;;;;;5049882;28;20037;-46
2022/04/28 03:47:00;;;;;;;17.67;9.32;;;5.60;99.90;;;;;;5049864;28;20029;-46
2022/04/28 03:49:26;;;;;;;18.23;10.70;;;5.60;99.90;;;;;;5049543;28;20115;-45
2022/04/28 03:51:52;;;;;;;20.88;10.20;;;5.50;99.90;;;;;;5048716;28;20109;-47
2022/04/28 03:54:18;;;;;;;19.90;10.00;;;5.50;99.90;;;;;;5057262;28;20120;-46
2022/04/28 03:56:43;;;;;;;25.30;10.48;;;5.50;99.90;;;;;;5060320;28;20091;-47
2022/04/28 03:59:09;;;;;;;19.55;10.38;;;5.50;99.90;;;;;;5066573;28;20124;-46
2022/04/28 04:01:35;;;;;;;18.40;10.30;;;5.50;99.90;;;;;;5067354;28;20040;-47
2022/04/28 04:04:00;;;;;;;23.52;11.32;;;5.50;99.90;;;;;;5069004;28;20029;-46
2022/04/28 04:06:26;;;;;;;16.67;9.82;;;5.60;99.90;;;;;;5069153;28;20107;-46
2022/04/28 04:08:52;;;;;;;24.60;10.85;;;5.60;99.90;;;;;;5069201;28;20040;-46
2022/04/28 04:11:17;;;;;;;17.83;9.80;;;5.50;99.90;;;;;;5063121;28;20111;-46
2022/04/28 04:13:43;;;;;;;21.38;9.65;;;5.50;99.90;;;;;;5057374;28;20024;-46
2022/04/28 04:16:10;;;;;;;18.65;9.60;;;5.50;99.90;;;;;;5059387;28;20028;-46
2022/04/28 04:18:35;;;;;;;20.80;11.13;;;5.50;99.90;;;;;;5049178;28;20023;-45
2022/04/28 04:21:01;;;;;;;26.10;11.18;;;5.50;99.90;;;;;;5053669;28;20021;-46
2022/04/28 04:23:26;;;;;;;20.98;11.70;;;5.50;99.90;;;;;;5047578;28;20025;-46
2022/04/28 04:25:52;;;;;;;17.92;9.68;;;5.50;99.90;;;;;;5052384;28;20017;-46
2022/04/28 04:28:17;;;;;;;23.17;10.93;;;5.50;99.90;;;;;;5051063;28;20013;-45
2022/04/28 04:33:27;;;;;;;22.00;10.63;;;5.50;99.90;;;;;;5048169;28;20083;-47
2022/04/28 04:35:53;;;;;;;17.52;10.20;;;5.50;99.90;;;;;;5047378;28;20020;-47
2022/04/28 04:38:19;;;;;;;22.73;10.10;;;5.60;99.90;;;;;;5048853;28;20021;-47
2022/04/28 04:40:44;;;;;;;19.83;10.63;;;5.50;99.90;;;;;;5047483;28;20029;-48
2022/04/28 04:43:13;;;;;;;21.60;10.35;;;5.60;99.90;;;;;;5050558;28;20032;-48
2022/04/28 04:45:42;;;;;;;19.00;10.07;;;5.70;99.90;;;;;;5061980;28;20136;-47
2022/04/28 04:48:09;;;;;;;22.73;9.90;;;5.70;99.90;;;;;;5052528;28;20020;-48
2022/04/28 04:50:34;;;;;;;17.40;10.20;;;5.70;99.90;;;;;;5056097;28;20111;-48
2022/04/28 04:52:59;;;;;;;22.63;10.57;;;5.70;99.90;;;;;;5051951;28;20879;-48
2022/04/28 04:55:25;;;;;;;28.05;10.80;;;5.70;99.90;;;;;;5058779;28;20069;-47
2022/04/28 04:57:50;;;;;;;17.27;10.43;;;5.70;99.90;;;;;;5058437;28;20535;-47
2022/04/28 05:00:16;;;;;;;19.20;10.57;;;5.80;99.90;;;;;;5057120;28;20089;-47
2022/04/28 05:02:42;;;;;;;24.60;9.55;;;5.80;99.90;;;;;;5065552;28;20115;-47
2022/04/28 05:05:08;;;;;;;19.90;9.55;;;5.80;99.90;;;;;;5066936;28;20047;-49
2022/04/28 05:07:33;;;;;;;24.45;10.85;;;5.90;99.90;;;;;;5066920;28;20032;-49
2022/04/28 05:09:59;;;;;;;17.17;9.70;;;5.90;99.90;;;;;;5066462;28;20037;-47
2022/04/28 05:12:24;;;;;;;22.27;9.90;;;5.90;99.90;;;;;;5064520;28;20093;-49
2022/04/28 05:14:50;;;;;;;22.45;10.35;;;6.00;99.90;;;;;;5066844;28;20024;-48
2022/04/28 05:17:16;;;;;;;19.83;9.98;;;6.00;99.90;;;;;;5066625;28;20099;-47
2022/04/28 05:19:42;;;;;;;18.42;10.90;;;6.00;99.90;;;;;;5066729;28;20021;-50
2022/04/28 05:22:07;;;;;;;21.88;11.40;;;6.10;99.90;;;;;;5064273;28;20033;-48
2022/04/28 05:24:33;;;;;;;24.45;11.77;;;6.10;99.90;;;;;;5066759;28;20025;-47
2022/04/28 05:26:59;;;;;;;24.90;10.10;;;6.10;99.90;;;;;;5066696;28;20090;-47
2022/04/28 05:29:24;;;;;;;30.10;11.73;;;6.20;99.90;;;;;;5049824;28;20028;-48
2022/04/28 05:31:50;;;;;;;23.58;10.73;;;6.20;99.90;;;;;;5048885;28;20032;-48
2022/04/28 05:34:15;;;;;;;22.77;10.88;;;6.30;99.90;;;;;;5050990;28;20051;-47
2022/04/28 05:36:41;;;;;;;25.95;11.25;;;6.20;99.90;;;;;;5058050;28;20027;-48
2022/04/28 05:39:06;;;;;;;22.90;9.77;;;6.30;99.90;;;;;;5071358;28;20028;-48
2022/04/28 05:41:34;;;;;;;20.25;10.80;;;6.40;99.90;;;;;;5070199;28;20032;-47
2022/04/28 05:46:44;;;;;;;24.80;10.73;;;6.50;99.90;;;;;;5070672;28;20113;-49
2022/04/28 05:49:09;;;;;;;24.50;10.30;;;6.50;99.90;;;;;;5065146;28;20501;-48
2022/04/28 05:51:35;;;;;;;20.67;11.35;;;6.50;99.90;;;;;;5070010;28;20448;-47
2022/04/28 05:54:01;;;;;;;19.45;9.68;;;6.50;99.90;;;;;;5070352;28;20406;-47
2022/04/28 05:56:26;;;;;;;22.88;9.77;;;6.60;99.90;;;;;;5070155;28;20390;-48
2022/04/28 05:58:52;;;;;;;22.08;10.32;;;6.50;99.90;;;;;;5070398;28;20150;-48
2022/04/28 06:01:18;;;;;;;31.40;10.25;;;6.60;99.90;;;;;;5070043;28;20441;-48
2022/04/28 06:03:44;;;;;;;22.08;10.23;;;6.60;99.90;;;;;;5070030;28;20104;-47
2022/04/28 06:06:10;;;;;;;22.50;10.02;;;6.60;99.90;;;;;;5069837;28;20021;-47
2022/04/28 06:08:36;;;;;;;18.42;9.55;;;6.70;99.90;;;;;;5069492;28;20036;-47
2022/04/28 06:11:02;;;;;;;19.63;9.30;;;6.80;99.90;;;;;;5069537;28;20028;-48
2022/04/28 06:13:29;;;;;;;23.85;10.30;;;6.80;99.90;;;;;;5069851;28;20102;-46
2022/04/28 06:15:55;;;;;;;21.67;10.43;;;6.90;99.90;;;;;;5070177;28;20305;-49
2022/04/28 06:18:21;;;;;;;20.90;9.60;;;7.00;99.90;;;;;;5070270;28;20100;-49
2022/04/28 06:20:47;;;;;;;22.35;10.07;;;7.00;99.90;;;;;;5068877;28;20413;-48
2022/04/28 06:23:12;;;;;;;22.63;10.15;;;7.00;99.90;;;;;;5069209;28;20055;-48
2022/04/28 06:25:38;;;;;;;23.70;10.63;;;7.10;99.90;;;;;;5069029;28;20221;-48
2022/04/28 06:28:04;;;;;;;21.17;11.95;;;7.10;99.90;;;;;;5070146;28;20020;-47
2022/04/28 06:30:30;;;;;;;22.35;10.63;;;7.20;99.90;;;;;;5070070;28;20029;-47
2022/04/28 06:32:55;;;;;;;21.63;10.32;;;7.20;99.90;;;;;;5069297;28;20456;-47
2022/04/28 06:35:21;;;;;;;27.02;9.48;;;7.20;99.90;;;;;;5069909;28;20033;-50
2022/04/28 06:37:47;;;;;;;24.45;10.43;;;7.30;99.90;;;;;;5069857;28;20405;-47
2022/04/28 06:40:13;;;;;;;23.52;9.90;;;7.40;99.90;;;;;;5069602;28;20024;-47
2022/04/28 06:42:43;;;;;;;22.88;10.63;;;7.50;99.90;;;;;;5069065;28;20286;-50
2022/04/28 06:45:09;;;;;;;23.40;10.38;;;7.60;99.90;;;;;;5067988;28;20405;-48
2022/04/28 06:47:35;;;;;;;15.48;9.30;;;7.70;99.90;;;;;;5069664;28;20535;-47
2022/04/28 06:50:01;;;;;;;26.55;11.60;;;7.80;99.90;;;;;;5069628;28;20024;-46
2022/04/28 06:52:26;;;;;;;21.25;10.05;;;7.90;99.90;;;;;;5068747;28;20455;-47
2022/04/28 06:54:52;;;;;;;19.52;9.93;;;7.90;99.90;;;;;;5069546;28;20044;-47
2022/04/28 06:57:17;;;;;;;20.55;9.88;;;8.00;99.90;;;;;;5069529;28;20020;-47
2022/04/28 06:59:43;;;;;;;21.20;10.15;;;8.10;99.90;;;;;;5069658;28;20024;-47
2022/04/28 07:02:09;;;;;;;24.83;10.63;;;8.20;99.90;;;;;;5069220;28;20040;-47
2022/04/28 07:04:34;;;;;;;23.95;9.55;;;8.40;99.90;;;;;;5069399;28;20393;-48
2022/04/28 07:07:00;;;;;;;24.90;10.02;;;8.50;99.90;;;;;;5069323;28;20393;-49
2022/04/28 07:09:25;;;;;;;23.00;9.90;;;8.60;99.90;;;;;;5069522;28;20228;-47
2022/04/28 07:11:51;;;;;;;19.13;8.80;;;8.60;99.90;;;;;;5069019;28;20106;-47
2022/04/28 07:14:16;;;;;;;20.63;9.55;;;8.70;99.90;;;;;;5069781;28;20021;-48
2022/04/28 07:16:42;;;;;;;20.33;9.70;;;8.80;99.90;;;;;;5069438;28;20024;-47
2022/04/28 07:19:08;;;;;;;17.02;9.15;;;8.70;99.90;;;;;;5068206;28;20025;-47
2022/04/28 07:21:34;;;;;;;21.67;9.60;;;9.00;99.90;;;;;;5069137;28;20103;-48
2022/04/28 07:24:00;;;;;;;23.15;8.65;;;9.10;99.90;;;;;;5069492;28;20056;-51
2022/04/28 07:26:25;;;;;;;17.80;8.63;;;9.20;99.90;;;;;;5069646;28;20725;-48
2022/04/28 07:28:51;;;;;;;17.92;8.50;;;9.30;99.90;;;;;;5069164;28;20138;-49
2022/04/28 07:31:16;;;;;;;17.20;8.38;;;9.50;99.90;;;;;;5069093;28;20110;-48
2022/04/28 07:33:42;;;;;;;21.42;7.88;;;9.50;99.90;;;;;;5068103;28;20386;-48
2022/04/28 07:36:07;;;;;;;16.55;7.88;;;9.60;99.90;;;;;;5069116;28;20056;-49
2022/04/28 07:38:33;;;;;;;20.02;7.85;;;9.70;99.90;;;;;;5069083;28;20036;-48
2022/04/28 07:41:00;;;;;;;11.65;7.10;;;9.90;99.90;;;;;;5069220;28;20095;-49
2022/04/28 07:43:26;;;;;;;21.23;7.93;;;10.00;99.90;;;;;;5068485;28;20130;-50
2022/04/28 07:45:51;;;;;;;19.13;8.73;;;10.20;99.90;;;;;;5068794;28;20028;-48
2022/04/28 07:48:17;;;;;;;19.05;8.05;;;10.30;99.90;;;;;;5068397;28;20032;-47
2022/04/28 07:50:42;;;;;;;19.08;8.55;;;10.50;99.90;;;;;;5067649;28;20024;-48
2022/04/28 07:53:08;;;;;;;17.95;8.15;;;10.80;99.90;;;;;;5066077;28;20025;-49
2022/04/28 07:55:33;;;;;;;20.85;8.40;;;10.90;99.90;;;;;;5068270;28;20024;-48
2022/04/28 07:57:59;;;;;;;17.65;7.28;;;11.00;99.90;;;;;;5068137;28;20013;-49
2022/04/28 08:00:24;;;;;;;20.35;7.32;;;11.10;99.90;;;;;;5067926;28;20047;-48
2022/04/28 08:02:50;;;;;;;14.30;7.60;;;11.40;99.90;;;;;;5067054;28;20082;-48
2022/04/28 08:05:15;;;;;;;14.52;7.45;;;11.70;99.90;;;;;;5068157;28;20024;-48
2022/04/28 08:07:41;;;;;;;11.10;6.22;;;12.10;99.90;;;;;;5067716;28;20032;-51
2022/04/28 08:10:07;;;;;;;15.50;8.45;;;12.40;99.90;;;;;;5068293;28;20100;-48
2022/04/28 08:12:33;;;;;;;15.98;7.28;;;13.00;99.90;;;;;;5067076;28;20501;-48
2022/04/28 08:14:59;;;;;;;9.52;4.63;;;13.80;97.30;;;;;;5068201;28;20020;-48
2022/04/28 08:17:26;;;;;;;13.38;6.28;;;14.70;96.80;;;;;;5068308;28;20064;-49
2022/04/28 08:19:51;;;;;;;11.32;5.82;;;15.90;91.30;;;;;;5068079;28;20021;-48
2022/04/28 08:22:17;;;;;;;14.23;5.70;;;17.10;87.30;;;;;;5067383;28;20489;-48
2022/04/28 08:24:42;;;;;;;13.32;6.45;;;18.70;81.90;;;;;;5067732;28;20051;-48
2022/04/28 08:27:08;;;;;;;8.82;4.55;;;19.80;76.40;;;;;;5066529;28;20028;-50
2022/04/28 08:29:33;;;;;;;10.20;4.40;;;20.30;69.80;;;;;;5067357;28;20143;-50
2022/04/28 08:31:59;;;;;;;12.57;5.93;;;21.20;67.30;;;;;;5067165;28;20116;-49
2022/04/28 08:34:24;;;;;;;12.43;5.75;;;21.70;61.90;;;;;;5067776;28;20031;-47
2022/04/28 08:36:51;;;;;;;15.90;4.45;;;21.10;61.30;;;;;;5066273;28;20021;-48
2022/04/28 08:39:16;;;;;;;7.90;4.53;;;21.70;59.30;;;;;;5067757;28;20021;-47
2022/04/28 08:41:47;;;;;;;6.13;3.90;;;23.10;59.10;;;;;;5067350;28;20038;-49
2022/04/28 08:44:24;;;;;;;10.63;5.50;;;24.20;54.60;;;;;;5066810;28;20502;-49
2022/04/28 08:46:52;;;;;;;6.97;3.92;;;23.70;49.00;;;;;;5067743;28;20028;-47
2022/04/28 08:49:26;;;;;;;9.20;4.97;;;24.10;51.70;;;;;;5066150;28;20028;-47
2022/04/28 08:51:55;;;;;;;6.32;3.88;;;24.30;50.60;;;;;;5067050;28;20529;-50
2022/04/28 08:54:22;;;;;;;11.23;4.50;;;24.50;51.60;;;;;;5067571;28;20529;-47
2022/04/28 08:56:51;;;;;;;7.70;4.03;;;24.90;49.90;;;;;;5067575;28;20019;-47
2022/04/28 08:59:17;;;;;;;10.13;4.55;;;24.50;49.40;;;;;;5067473;28;20044;-49
2022/04/28 09:01:43;;;;;;;12.00;5.13;;;24.70;49.20;;;;;;5066745;28;20377;-46
2022/04/28 09:04:12;;;;;;;7.15;3.90;;;24.70;48.30;;;;;;5070446;28;20020;-49
2022/04/28 09:06:42;;;;;;;10.48;4.47;;;24.90;49.20;;;;;;5071969;28;20077;-48
2022/04/28 09:09:09;;;;;;;8.30;3.92;;;25.30;48.00;;;;;;5071771;28;20036;-48
2022/04/28 09:11:37;;;;;;;10.18;4.38;;;25.70;45.90;;;;;;5071075;28;20032;-47
2022/04/28 09:14:11;;;;;;;8.23;3.33;;;25.70;48.50;;;;;;5071788;28;20584;-50
2022/04/28 09:16:42;;;;;;;10.35;4.93;;;25.60;47.00;;;;;;5071708;28;20025;-48
2022/04/28 09:19:10;;;;;;;9.60;4.57;;;24.90;47.40;;;;;;5071336;28;20028;-50
2022/04/28 09:21:36;;;;;;;10.20;4.80;;;25.60;45.80;;;;;;5071067;28;20063;-50
2022/04/28 09:24:02;;;;;;;8.15;4.05;;;26.60;47.10;;;;;;5071388;28;20493;-51
2022/04/28 09:26:29;;;;;;;10.15;4.47;;;26.50;46.00;;;;;;5071339;28;20039;-47
2022/04/28 09:28:55;;;;;;;7.57;3.80;;;26.60;47.00;;;;;;5071220;28;20413;-49
2022/04/28 09:31:23;;;;;;;10.45;4.93;;;26.90;44.60;;;;;;5071019;28;20024;-50
2022/04/28 09:33:49;;;;;;;15.52;4.97;;;27.10;44.20;;;;;;5070609;28;20017;-51
2022/04/28 09:36:15;;;;;;;14.05;5.63;;;26.30;44.80;;;;;;5070560;28;20509;-49
2022/04/28 09:38:40;;;;;;;9.40;5.00;;;26.50;43.20;;;;;;5070873;28;20025;-48
2022/04/28 09:43:58;;;;;;;10.82;5.05;;;26.50;44.80;;;;;;5070298;28;20070;-47
2022/04/28 09:46:25;;;;;;;8.80;4.10;;;27.10;43.90;;;;;;5070936;28;20021;-47
2022/04/28 09:48:52;;;;;;;8.48;5.38;;;26.90;43.40;;;;;;5070780;28;20112;-48
2022/04/28 09:51:23;;;;;;;5.45;3.47;;;27.30;45.00;;;;;;5070810;28;20532;-47
2022/04/28 09:53:51;;;;;;;9.45;5.00;;;27.80;46.10;;;;;;5069586;28;20072;-48
2022/04/28 09:56:20;;;;;;;9.57;5.70;;;27.70;43.10;;;;;;5070708;28;20017;-49
2022/04/28 09:58:46;;;;;;;8.20;5.30;;;27.50;41.40;;;;;;5070813;28;20055;-49
2022/04/28 10:01:11;;;;;;;9.50;5.00;;;27.80;44.50;;;;;;5070490;28;20482;-49
2022/04/28 10:03:40;;;;;;;12.43;5.68;;;28.00;41.50;;;;;;5069805;28;20477;-48
2022/04/28 10:06:06;;;;;;;9.50;5.20;;;27.90;44.10;;;;;;5070040;28;20107;-48
2022/04/28 10:08:33;;;;;;;10.45;5.18;;;27.70;44.50;;;;;;5070230;28;20162;-49
2022/04/28 10:11:01;;;;;;;7.65;4.40;;;28.50;41.00;;;;;;5070294;28;20115;-48
2022/04/28 10:13:29;;;;;;;11.27;5.13;;;29.50;42.30;;;;;;5069620;28;20028;-48
2022/04/28 10:16:15;;;;;;;8.73;5.05;;;29.70;40.60;;;;;;5070235;28;20025;-48
2022/04/28 10:19:11;;;;;;;9.35;6.07;;;28.50;40.00;;;;;;5070123;28;20024;-48
2022/04/28 10:21:57;;;;;;;8.40;5.47;;;27.40;39.80;;;;;;5069106;28;20064;-47
2022/04/28 10:33:04;;;;;;;12.02;4.70;;;28.50;41.70;;;;;;5069282;28;20031;-48
2022/04/28 10:35:42;;;;;;;11.30;5.82;;;27.20;40.60;;;;;;5069923;28;20155;-49
2022/04/28 10:38:12;;;;;;;8.93;5.22;;;25.90;41.60;;;;;;5070037;28;20039;-47
2022/04/28 10:40:39;;;;;;;;;;;26.50;43.90;;;;;;5070322;28;20020;-48
2022/04/28 10:43:18;;;;;;;10.00;5.80;;;26.40;42.40;;;;;;5069373;28;19904;-51
2022/04/28 10:45:45;;;;;;;14.85;7.82;;;25.50;43.00;;;;;;5070290;28;20465;-47
2022/04/28 10:48:21;;;;;;;11.10;6.03;;;26.60;42.80;;;;;;5069596;28;20039;-49
2022/04/28 10:50:59;;;;;;;8.20;5.30;;;28.10;40.20;;;;;;5069796;28;20031;-49
2022/04/28 10:53:24;;;;;;;8.95;4.60;;;27.30;42.00;;;;;;5068619;28;20490;-47
2022/04/28 10:55:50;;;;;;;9.60;6.65;;;28.10;42.90;;;;;;5069746;28;20025;-50
2022/04/28 10:58:20;;;;;;;10.05;5.90;;;28.10;41.90;;;;;;5069698;28;20027;-48
2022/04/28 11:00:52;;;;;;;8.65;6.97;;;28.50;42.70;;;;;;5069486;28;20020;-48
2022/04/28 11:03:42;;;;;;;11.32;6.43;;;28.40;41.70;;;;;;5069073;28;20024;-50
2022/04/28 11:06:12;;;;;;;8.85;5.78;;;28.30;40.60;;;;;;5069360;28;20024;-47
2022/04/28 11:08:44;;;;;;;5.50;4.15;;;27.30;42.80;;;;;;5069359;28;20041;-47
2022/04/28 11:11:12;;;;;;;8.65;5.97;;;28.20;43.20;;;;;;5068155;28;20029;-50
2022/04/28 11:13:40;;;;;;;15.10;7.75;;;28.50;43.60;;;;;;5068516;28;20025;-48
2022/04/28 11:16:08;;;;;;;11.48;7.97;;;27.70;39.90;;;;;;5069206;28;20472;-48
2022/04/28 11:18:34;;;;;;;10.90;5.95;;;26.40;40.90;;;;;;5069463;28;20374;-50
2022/04/28 11:21:01;;;;;;;9.63;6.22;;;26.50;44.70;;;;;;5068822;28;20036;-47
2022/04/28 11:23:33;;;;;;;9.63;6.32;;;27.40;42.50;;;;;;5068438;28;20432;-50
2022/04/28 11:25:59;;;;;;;10.73;7.85;;;26.70;42.10;;;;;;5068448;28;20460;-51
2022/04/28 11:28:26;;;;;;;12.20;7.30;;;27.60;39.10;;;;;;5069450;28;20021;-48
2022/04/28 11:30:52;;;;;;;12.32;6.65;;;26.70;41.10;;;;;;5069175;28;20028;-48
2022/04/28 11:33:21;;;;;;;13.82;6.93;;;26.50;43.00;;;;;;5068691;28;20040;-50
2022/04/28 11:35:46;;;;;;;11.43;6.72;;;26.60;43.50;;;;;;5067499;28;20389;-48
2022/04/28 11:38:12;;;;;;;13.07;7.00;;;26.50;42.70;;;;;;5068842;28;20103;-47
2022/04/28 11:40:39;;;;;;;8.88;6.13;;;26.80;44.50;;;;;;5067359;28;20016;-50
2022/04/28 11:43:05;;;;;;;8.48;6.30;;;26.80;42.70;;;;;;5068270;28;20389;-48
2022/04/28 11:45:32;;;;;;;13.63;7.22;;;26.30;40.60;;;;;;5067332;28;20113;-48
2022/04/28 11:48:00;;;;;;;9.32;6.28;;;25.40;42.10;;;;;;5068761;28;20056;-48
2022/04/28 11:50:32;;;;;;;10.60;7.65;;;26.00;42.20;;;;;;5068416;28;20035;-51
2022/04/28 11:53:12;;;;;;;9.07;6.00;;;24.90;41.10;;;;;;5067465;28;20025;-49
2022/04/28 11:55:40;;;;;;;11.07;5.65;;;25.70;46.00;;;;;;5068242;28;20016;-48
2022/04/28 11:58:07;;;;;;;10.52;6.25;;;26.30;43.40;;;;;;5068464;28;20024;-48
2022/04/28 12:00:41;;;;;;;10.43;6.20;;;26.50;42.10;;;;;;5068621;28;20028;-47
2022/04/28 12:03:07;;;;;;;15.00;7.20;;;26.20;42.60;;;;;;5067848;28;20490;-50
2022/04/28 12:05:34;;;;;;;9.88;6.55;;;25.70;41.50;;;;;;5068668;28;20032;-48
2022/04/28 12:08:00;;;;;;;14.60;6.95;;;25.00;43.20;;;;;;5067982;28;20032;-49
2022/04/28 12:16:16;;;;;;;12.93;7.13;;;23.50;45.80;;;;;;5068250;28;20048;-49
2022/04/28 12:21:37;;;;;;;14.40;7.15;;;22.90;50.20;;;;;;5067477;28;19927;-47
2022/04/28 12:24:15;;;;;;;11.90;6.50;;;22.40;49.60;;;;;;5068047;28;20024;-47
2022/04/28 12:26:42;;;;;;;12.57;7.25;;;22.40;50.80;;;;;;5067882;28;20142;-50
2022/04/28 12:29:12;;;;;;;8.15;6.28;;;21.80;49.40;;;;;;5067405;28;20013;-48
2022/04/28 12:31:39;;;;;;;;;;;22.00;53.30;;;;;;5066395;28;20049;-48
2022/04/28 12:34:13;;;;;;;11.05;5.72;;;22.10;51.10;;;;;;5067445;28;19904;-47
2022/04/28 12:36:53;;;;;;;11.68;7.28;;;22.20;50.70;;;;;;5067532;28;20028;-48
2022/04/28 12:39:19;;;;;;;12.02;5.97;;;22.00;50.80;;;;;;5066460;28;20178;-47
2022/04/28 12:41:44;;;;;;;12.40;6.60;;;22.10;51.20;;;;;;5067104;28;20025;-46
2022/04/28 12:44:10;;;;;;;10.13;5.75;;;21.90;49.40;;;;;;5067669;28;20024;-46
2022/04/28 12:46:38;;;;;;;12.80;5.63;;;22.20;51.10;;;;;;5067569;28;20020;-46
2022/04/28 12:49:08;;;;;;;12.20;5.70;;;22.30;50.70;;;;;;5067870;28;20036;-46
2022/04/28 12:51:45;;;;;;;13.25;6.30;;;21.60;50.00;;;;;;5067499;28;20472;-47
2022/04/28 12:54:20;;;;;;;8.57;5.85;;;21.20;49.80;;;;;;5067765;28;20062;-47
2022/04/28 12:56:53;;;;;;;10.93;5.80;;;21.50;50.70;;;;;;5067608;28;20032;-49
2022/04/28 12:59:21;;;;;;;13.55;6.80;;;21.50;53.80;;;;;;5067752;28;20079;-47
2022/04/28 13:01:47;;;;;;;9.85;5.68;;;21.50;50.80;;;;;;5066788;28;20055;-47
2022/04/28 13:04:17;;;;;;;11.45;5.53;;;21.60;52.80;;;;;;5067157;28;20160;-48
2022/04/28 13:06:44;;;;;;;7.28;5.30;;;21.90;51.70;;;;;;5066818;28;20032;-49
2022/04/28 13:09:10;;;;;;;12.18;5.82;;;21.90;50.70;;;;;;5067646;28;20032;-49
2022/04/28 13:11:40;;;;;;;9.60;5.22;;;21.50;47.80;;;;;;5066068;28;20037;-47
2022/04/28 13:14:08;;;;;;;12.88;5.82;;;21.60;50.20;;;;;;5067186;28;20167;-48
2022/04/28 13:16:34;;;;;;;13.30;5.90;;;21.70;50.00;;;;;;5067284;28;20100;-48
2022/04/28 13:19:01;;;;;;;11.88;5.65;;;21.80;50.50;;;;;;5067145;28;20233;-48
2022/04/28 13:21:27;;;;;;;8.90;5.07;;;21.60;52.10;;;;;;5067315;28;20179;-48